sensor_id;sensor_type;location;lat;lon;timestamp;temperature;humidity
72576;DHT22;60613;48.658;2.328;2023-06-10T06:02:36;28.20;40.40
72576;DHT22;60613;48.658;2.328;2023-06-10T06:05:01;28.20;41.40
72576;DHT22;60613;48.658;2.328;2023-06-10T06:07:27;28.20;41.30
72576;DHT22;60613;48.658;2.328;2023-06-10T06:09:52;28.20;41.20
72576;DHT22;60613;48.658;2.328;2023-06-10T06:12:18;28.20;41.10
72576;DHT22;60613;48.658;2.328;2023-06-10T06:14:44;28.20;41.10
72576;DHT22;60613;48.658;2.328;2023-06-10T06:17:10;28.30;41.20
72576;DHT22;60613;48.658;2.328;2023-06-10T06:19:35;28.30;41.00
72576;DHT22;60613;48.658;2.328;2023-06-10T06:22:01;28.30;40.90
72576;DHT22;60613;48.658;2.328;2023-06-10T06:24:27;28.30;40.90
72576;DHT22;60613;48.658;2.328;2023-06-10T06:26:52;28.30;40.80
72576;DHT22;60613;48.658;2.328;2023-06-10T06:29:18;28.30;40.80
72576;DHT22;60613;48.658;2.328;2023-06-10T06:31:44;28.30;40.90
72576;DHT22;60613;48.658;2.328;2023-06-10T06:34:09;28.30;40.70
72576;DHT22;60613;48.658;2.328;2023-06-10T06:36:35;28.30;40.80
72576;DHT22;60613;48.658;2.328;2023-06-10T06:39:00;28.30;40.80
72576;DHT22;60613;48.658;2.328;2023-06-10T06:41:26;28.30;40.70
72576;DHT22;60613;48.658;2.328;2023-06-10T06:43:54;28.30;40.70
72576;DHT22;60613;48.658;2.328;2023-06-10T06:46:19;28.30;41.90
72576;DHT22;60613;48.658;2.328;2023-06-10T06:48:46;28.40;41.50
72576;DHT22;60613;48.658;2.328;2023-06-10T06:51:12;28.40;42.30
72576;DHT22;60613;48.658;2.328;2023-06-10T06:53:39;28.40;41.20
72576;DHT22;60613;48.658;2.328;2023-06-10T06:56:13;28.40;41.70
72576;DHT22;60613;48.658;2.328;2023-06-10T06:58:38;28.40;41.50
72576;DHT22;60613;48.658;2.328;2023-06-10T07:01:04;28.20;42.30
72576;DHT22;60613;48.658;2.328;2023-06-10T07:03:30;28.30;42.10
72576;DHT22;60613;48.658;2.328;2023-06-10T07:05:55;28.40;42.10
72576;DHT22;60613;48.658;2.328;2023-06-10T07:08:21;28.50;42.30
72576;DHT22;60613;48.658;2.328;2023-06-10T07:10:46;28.50;42.90
72576;DHT22;60613;48.658;2.328;2023-06-10T07:13:12;28.50;43.60
72576;DHT22;60613;48.658;2.328;2023-06-10T07:15:38;28.40;43.80
72576;DHT22;60613;48.658;2.328;2023-06-10T07:18:04;28.50;44.80
72576;DHT22;60613;48.658;2.328;2023-06-10T07:20:30;28.40;43.40
72576;DHT22;60613;48.658;2.328;2023-06-10T07:22:55;28.50;43.60
72576;DHT22;60613;48.658;2.328;2023-06-10T07:25:21;28.50;43.90
72576;DHT22;60613;48.658;2.328;2023-06-10T07:27:46;28.50;44.00
72576;DHT22;60613;48.658;2.328;2023-06-10T07:30:12;28.50;44.20
72576;DHT22;60613;48.658;2.328;2023-06-10T07:32:38;28.40;44.60
72576;DHT22;60613;48.658;2.328;2023-06-10T07:35:08;28.30;44.60
72576;DHT22;60613;48.658;2.328;2023-06-10T07:37:33;28.40;44.80
72576;DHT22;60613;48.658;2.328;2023-06-10T07:39:59;28.20;45.40
72576;DHT22;60613;48.658;2.328;2023-06-10T07:42:25;28.10;45.60
72576;DHT22;60613;48.658;2.328;2023-06-10T07:44:50;28.30;45.50
72576;DHT22;60613;48.658;2.328;2023-06-10T07:47:16;28.40;45.40
72576;DHT22;60613;48.658;2.328;2023-06-10T07:49:41;28.40;45.20
72576;DHT22;60613;48.658;2.328;2023-06-10T07:52:08;28.50;45.50
72576;DHT22;60613;48.658;2.328;2023-06-10T07:54:33;28.30;46.40
72576;DHT22;60613;48.658;2.328;2023-06-10T07:56:59;28.10;46.60
72576;DHT22;60613;48.658;2.328;2023-06-10T07:59:25;28.00;46.50
72576;DHT22;60613;48.658;2.328;2023-06-10T08:01:52;27.90;46.50
72576;DHT22;60613;48.658;2.328;2023-06-10T08:04:18;27.90;46.50
72576;DHT22;60613;48.658;2.328;2023-06-10T08:06:43;27.90;46.50
72576;DHT22;60613;48.658;2.328;2023-06-10T08:09:09;27.80;46.10
72576;DHT22;60613;48.658;2.328;2023-06-10T08:11:35;27.80;46.10
72576;DHT22;60613;48.658;2.328;2023-06-10T08:14:00;27.90;46.00
72576;DHT22;60613;48.658;2.328;2023-06-10T08:16:26;27.90;46.20
72576;DHT22;60613;48.658;2.328;2023-06-10T08:18:52;27.90;46.10
72576;DHT22;60613;48.658;2.328;2023-06-10T08:21:18;27.90;45.80
72576;DHT22;60613;48.658;2.328;2023-06-10T08:23:44;27.90;45.90
72576;DHT22;60613;48.658;2.328;2023-06-10T08:26:09;28.00;45.80
72576;DHT22;60613;48.658;2.328;2023-06-10T08:28:35;28.10;45.50
72576;DHT22;60613;48.658;2.328;2023-06-10T08:31:00;28.30;45.30
72576;DHT22;60613;48.658;2.328;2023-06-10T08:33:26;28.40;44.90
72576;DHT22;60613;48.658;2.328;2023-06-10T08:35:52;28.50;44.40
72576;DHT22;60613;48.658;2.328;2023-06-10T08:38:17;28.60;44.30
72576;DHT22;60613;48.658;2.328;2023-06-10T08:40:43;28.70;44.10
72576;DHT22;60613;48.658;2.328;2023-06-10T08:43:26;28.70;43.60
72576;DHT22;60613;48.658;2.328;2023-06-10T08:45:56;28.80;43.50
72576;DHT22;60613;48.658;2.328;2023-06-10T08:48:27;28.80;43.40
72576;DHT22;60613;48.658;2.328;2023-06-10T08:50:57;28.90;43.50
72576;DHT22;60613;48.658;2.328;2023-06-10T08:53:23;28.80;44.60
72576;DHT22;60613;48.658;2.328;2023-06-10T08:55:51;28.80;43.90
72576;DHT22;60613;48.658;2.328;2023-06-10T08:58:17;28.90;43.80
72576;DHT22;60613;48.658;2.328;2023-06-10T09:00:44;28.90;43.20
72576;DHT22;60613;48.658;2.328;2023-06-10T09:03:10;29.00;42.90
72576;DHT22;60613;48.658;2.328;2023-06-10T09:05:38;29.00;42.90
72576;DHT22;60613;48.658;2.328;2023-06-10T09:08:05;29.00;42.90
72576;DHT22;60613;48.658;2.328;2023-06-10T09:10:32;29.00;42.60
72576;DHT22;60613;48.658;2.328;2023-06-10T09:12:58;28.90;42.80
72576;DHT22;60613;48.658;2.328;2023-06-10T09:15:24;29.00;42.90
72576;DHT22;60613;48.658;2.328;2023-06-10T09:17:49;28.90;42.80
72576;DHT22;60613;48.658;2.328;2023-06-10T09:20:16;28.90;42.90
72576;DHT22;60613;48.658;2.328;2023-06-10T09:22:42;28.90;43.00
72576;DHT22;60613;48.658;2.328;2023-06-10T09:25:11;28.90;42.80
72576;DHT22;60613;48.658;2.328;2023-06-10T09:27:49;28.90;42.60
72576;DHT22;60613;48.658;2.328;2023-06-10T09:30:32;28.90;42.90
72576;DHT22;60613;48.658;2.328;2023-06-10T09:33:02;28.90;42.70
72576;DHT22;60613;48.658;2.328;2023-06-10T09:35:30;28.90;43.40
72576;DHT22;60613;48.658;2.328;2023-06-10T09:38:00;28.90;42.70
72576;DHT22;60613;48.658;2.328;2023-06-10T09:40:26;28.90;42.50
72576;DHT22;60613;48.658;2.328;2023-06-10T09:42:57;29.00;42.50
72576;DHT22;60613;48.658;2.328;2023-06-10T09:45:25;29.00;42.50
72576;DHT22;60613;48.658;2.328;2023-06-10T09:47:53;29.10;42.20
72576;DHT22;60613;48.658;2.328;2023-06-10T09:50:19;29.10;41.80
72576;DHT22;60613;48.658;2.328;2023-06-10T09:52:45;29.20;41.80
72576;DHT22;60613;48.658;2.328;2023-06-10T09:55:11;29.10;41.80
72576;DHT22;60613;48.658;2.328;2023-06-10T09:57:37;29.20;41.80
72576;DHT22;60613;48.658;2.328;2023-06-10T10:00:09;29.20;41.70
72576;DHT22;60613;48.658;2.328;2023-06-10T10:02:49;29.20;41.70
72576;DHT22;60613;48.658;2.328;2023-06-10T10:05:16;29.20;41.50
72576;DHT22;60613;48.658;2.328;2023-06-10T10:07:43;29.20;41.60
72576;DHT22;60613;48.658;2.328;2023-06-10T10:10:09;29.30;41.70
72576;DHT22;60613;48.658;2.328;2023-06-10T10:12:37;29.30;41.50
72576;DHT22;60613;48.658;2.328;2023-06-10T10:15:04;29.20;41.80
72576;DHT22;60613;48.658;2.328;2023-06-10T10:17:32;29.20;42.10
72576;DHT22;60613;48.658;2.328;2023-06-10T10:20:03;29.20;42.30
72576;DHT22;60613;48.658;2.328;2023-06-10T10:22:38;29.20;41.90
72576;DHT22;60613;48.658;2.328;2023-06-10T10:25:12;29.10;42.20
72576;DHT22;60613;48.658;2.328;2023-06-10T10:27:54;29.20;42.00
72576;DHT22;60613;48.658;2.328;2023-06-10T10:30:22;29.20;41.70
72576;DHT22;60613;48.658;2.328;2023-06-10T10:32:57;29.30;41.40
72576;DHT22;60613;48.658;2.328;2023-06-10T10:35:25;29.30;41.70
72576;DHT22;60613;48.658;2.328;2023-06-10T10:37:54;29.20;42.00
72576;DHT22;60613;48.658;2.328;2023-06-10T10:40:23;29.20;43.10
72576;DHT22;60613;48.658;2.328;2023-06-10T10:42:51;29.30;41.50
72576;DHT22;60613;48.658;2.328;2023-06-10T10:45:17;29.20;41.70
72576;DHT22;60613;48.658;2.328;2023-06-10T10:47:46;29.30;41.80
72576;DHT22;60613;48.658;2.328;2023-06-10T10:50:18;29.30;41.40
72576;DHT22;60613;48.658;2.328;2023-06-10T10:55:17;29.30;41.50
72576;DHT22;60613;48.658;2.328;2023-06-10T10:57:42;29.30;42.00
72576;DHT22;60613;48.658;2.328;2023-06-10T11:00:09;29.20;42.00
72576;DHT22;60613;48.658;2.328;2023-06-10T11:02:41;29.20;41.80
72576;DHT22;60613;48.658;2.328;2023-06-10T11:05:12;29.20;41.90
72576;DHT22;60613;48.658;2.328;2023-06-10T11:07:39;29.20;42.00
72576;DHT22;60613;48.658;2.328;2023-06-10T11:10:11;29.10;42.20
72576;DHT22;60613;48.658;2.328;2023-06-10T11:15:28;29.10;42.30
72576;DHT22;60613;48.658;2.328;2023-06-10T11:28:36;29.20;42.20
72576;DHT22;60613;48.658;2.328;2023-06-10T11:31:02;29.20;42.40
72576;DHT22;60613;48.658;2.328;2023-06-10T11:33:27;29.30;43.60
72576;DHT22;60613;48.658;2.328;2023-06-10T11:35:54;29.30;42.00
72576;DHT22;60613;48.658;2.328;2023-06-10T11:38:20;29.30;42.10
72576;DHT22;60613;48.658;2.328;2023-06-10T11:40:48;29.40;42.50
72576;DHT22;60613;48.658;2.328;2023-06-10T11:43:18;29.40;42.20
72576;DHT22;60613;48.658;2.328;2023-06-10T11:45:44;29.40;42.00
72576;DHT22;60613;48.658;2.328;2023-06-10T11:48:11;29.40;41.80
72576;DHT22;60613;48.658;2.328;2023-06-10T11:50:37;29.40;41.90
72576;DHT22;60613;48.658;2.328;2023-06-10T11:53:03;29.40;42.10
72576;DHT22;60613;48.658;2.328;2023-06-10T11:55:50;29.30;42.20
72576;DHT22;60613;48.658;2.328;2023-06-10T11:58:17;29.30;42.60
72576;DHT22;60613;48.658;2.328;2023-06-10T12:00:54;29.30;42.40
72576;DHT22;60613;48.658;2.328;2023-06-10T12:03:21;29.30;42.80
72576;DHT22;60613;48.658;2.328;2023-06-10T12:06:02;29.20;42.70
72576;DHT22;60613;48.658;2.328;2023-06-10T12:08:28;29.20;42.90
72576;DHT22;60613;48.658;2.328;2023-06-10T12:10:54;29.20;43.00
72576;DHT22;60613;48.658;2.328;2023-06-10T12:13:20;29.20;43.10
72576;DHT22;60613;48.658;2.328;2023-06-10T12:15:47;29.20;42.70
72576;DHT22;60613;48.658;2.328;2023-06-10T12:18:17;29.20;43.00
72576;DHT22;60613;48.658;2.328;2023-06-10T12:20:43;29.20;42.80
72576;DHT22;60613;48.658;2.328;2023-06-10T12:23:09;29.20;42.90
72576;DHT22;60613;48.658;2.328;2023-06-10T12:25:35;29.20;43.10
72576;DHT22;60613;48.658;2.328;2023-06-10T12:28:02;29.20;43.10
72576;DHT22;60613;48.658;2.328;2023-06-10T12:30:28;29.20;43.10
72576;DHT22;60613;48.658;2.328;2023-06-10T12:32:54;29.20;43.10
72576;DHT22;60613;48.658;2.328;2023-06-10T12:35:23;29.20;42.90
72576;DHT22;60613;48.658;2.328;2023-06-10T12:37:59;29.20;44.20
72576;DHT22;60613;48.658;2.328;2023-06-10T12:40:37;29.20;42.90
72576;DHT22;60613;48.658;2.328;2023-06-10T12:43:05;29.20;43.40
72576;DHT22;60613;48.658;2.328;2023-06-10T12:45:36;29.20;43.20
72576;DHT22;60613;48.658;2.328;2023-06-10T12:48:12;29.20;43.10
72576;DHT22;60613;48.658;2.328;2023-06-10T12:50:42;29.20;42.90
72576;DHT22;60613;48.658;2.328;2023-06-10T12:53:10;29.20;43.20
72576;DHT22;60613;48.658;2.328;2023-06-10T12:55:37;29.20;42.90
72576;DHT22;60613;48.658;2.328;2023-06-10T12:58:03;29.20;43.00
72576;DHT22;60613;48.658;2.328;2023-06-10T13:00:29;29.20;42.90
72576;DHT22;60613;48.658;2.328;2023-06-10T13:03:00;29.20;42.90
72576;DHT22;60613;48.658;2.328;2023-06-10T13:05:27;29.20;43.00
72576;DHT22;60613;48.658;2.328;2023-06-10T13:07:53;29.20;42.90
72576;DHT22;60613;48.658;2.328;2023-06-10T13:10:20;29.20;42.90
72576;DHT22;60613;48.658;2.328;2023-06-10T13:12:46;29.20;42.80
72576;DHT22;60613;48.658;2.328;2023-06-10T13:15:13;29.30;42.90
72576;DHT22;60613;48.658;2.328;2023-06-10T13:17:40;29.30;42.90
72576;DHT22;60613;48.658;2.328;2023-06-10T13:20:07;29.30;44.10
72576;DHT22;60613;48.658;2.328;2023-06-10T13:22:33;29.30;42.90
72576;DHT22;60613;48.658;2.328;2023-06-10T13:25:00;29.30;43.00
72576;DHT22;60613;48.658;2.328;2023-06-10T13:27:26;29.30;42.90
72576;DHT22;60613;48.658;2.328;2023-06-10T13:29:52;29.30;42.90
72576;DHT22;60613;48.658;2.328;2023-06-10T13:32:18;29.30;42.70
72576;DHT22;60613;48.658;2.328;2023-06-10T13:34:43;29.40;42.90
72576;DHT22;60613;48.658;2.328;2023-06-10T13:37:09;29.30;42.90
72576;DHT22;60613;48.658;2.328;2023-06-10T13:39:35;29.40;42.50
72576;DHT22;60613;48.658;2.328;2023-06-10T13:42:01;29.40;42.80
72576;DHT22;60613;48.658;2.328;2023-06-10T13:44:27;29.40;42.80
72576;DHT22;60613;48.658;2.328;2023-06-10T13:46:56;29.40;42.60
72576;DHT22;60613;48.658;2.328;2023-06-10T13:49:21;29.40;42.60
72576;DHT22;60613;48.658;2.328;2023-06-10T13:51:47;29.40;42.60
72576;DHT22;60613;48.658;2.328;2023-06-10T13:54:13;29.40;42.60
72576;DHT22;60613;48.658;2.328;2023-06-10T13:56:41;29.40;42.70
72576;DHT22;60613;48.658;2.328;2023-06-10T13:59:06;29.40;42.50
72576;DHT22;60613;48.658;2.328;2023-06-10T14:01:32;29.40;42.60
72576;DHT22;60613;48.658;2.328;2023-06-10T14:03:58;29.40;42.60
72576;DHT22;60613;48.658;2.328;2023-06-10T14:06:24;29.40;42.50
72576;DHT22;60613;48.658;2.328;2023-06-10T14:08:49;29.40;42.60
72576;DHT22;60613;48.658;2.328;2023-06-10T14:11:15;29.40;42.50
72576;DHT22;60613;48.658;2.328;2023-06-10T14:13:41;29.50;42.50
72576;DHT22;60613;48.658;2.328;2023-06-10T14:16:09;29.50;41.90
72576;DHT22;60613;48.658;2.328;2023-06-10T14:18:34;29.60;41.90
72576;DHT22;60613;48.658;2.328;2023-06-10T14:21:00;29.80;41.10
72576;DHT22;60613;48.658;2.328;2023-06-10T14:23:26;30.00;41.00
72576;DHT22;60613;48.658;2.328;2023-06-10T14:25:51;30.10;39.60
72576;DHT22;60613;48.658;2.328;2023-06-10T14:28:17;30.20;38.60
72576;DHT22;60613;48.658;2.328;2023-06-10T14:30:43;30.30;38.40
72576;DHT22;60613;48.658;2.328;2023-06-10T14:33:09;30.40;38.20
72576;DHT22;60613;48.658;2.328;2023-06-10T14:35:34;30.40;38.80
72576;DHT22;60613;48.658;2.328;2023-06-10T14:38:00;30.40;38.90
72576;DHT22;60613;48.658;2.328;2023-06-10T14:40:25;30.40;39.10
72576;DHT22;60613;48.658;2.328;2023-06-10T14:42:54;30.40;39.10
72576;DHT22;60613;48.658;2.328;2023-06-10T14:45:20;30.40;39.10
72576;DHT22;60613;48.658;2.328;2023-06-10T14:47:45;30.40;39.00
72576;DHT22;60613;48.658;2.328;2023-06-10T14:50:12;30.40;38.10
72576;DHT22;60613;48.658;2.328;2023-06-10T14:52:38;30.40;38.50
72576;DHT22;60613;48.658;2.328;2023-06-10T14:55:04;30.40;38.60
72576;DHT22;60613;48.658;2.328;2023-06-10T14:57:30;30.40;38.60
72576;DHT22;60613;48.658;2.328;2023-06-10T14:59:55;30.30;39.10
72576;DHT22;60613;48.658;2.328;2023-06-10T15:02:22;30.30;39.00
72576;DHT22;60613;48.658;2.328;2023-06-10T15:04:48;30.40;38.90
72576;DHT22;60613;48.658;2.328;2023-06-10T15:07:14;30.40;38.80
72576;DHT22;60613;48.658;2.328;2023-06-10T15:09:41;30.40;38.80
72576;DHT22;60613;48.658;2.328;2023-06-10T15:12:07;30.50;38.30
72576;DHT22;60613;48.658;2.328;2023-06-10T15:14:33;30.50;37.90
72576;DHT22;60613;48.658;2.328;2023-06-10T15:16:59;30.60;37.90
72576;DHT22;60613;48.658;2.328;2023-06-10T15:19:25;30.60;38.20
72576;DHT22;60613;48.658;2.328;2023-06-10T15:21:51;30.50;38.30
72576;DHT22;60613;48.658;2.328;2023-06-10T15:24:17;30.50;38.40
72576;DHT22;60613;48.658;2.328;2023-06-10T15:26:43;30.50;38.70
72576;DHT22;60613;48.658;2.328;2023-06-10T15:29:08;30.50;38.60
72576;DHT22;60613;48.658;2.328;2023-06-10T15:31:34;30.50;37.20
72576;DHT22;60613;48.658;2.328;2023-06-10T15:34:00;30.50;36.80
72576;DHT22;60613;48.658;2.328;2023-06-10T15:36:27;30.60;37.00
72576;DHT22;60613;48.658;2.328;2023-06-10T15:38:53;30.70;36.80
72576;DHT22;60613;48.658;2.328;2023-06-10T15:41:19;30.80;36.40
72576;DHT22;60613;48.658;2.328;2023-06-10T15:43:45;30.80;36.60
72576;DHT22;60613;48.658;2.328;2023-06-10T15:46:11;30.80;36.30
72576;DHT22;60613;48.658;2.328;2023-06-10T15:48:37;30.80;36.50
72576;DHT22;60613;48.658;2.328;2023-06-10T15:51:02;30.80;36.80
72576;DHT22;60613;48.658;2.328;2023-06-10T15:53:28;30.80;36.20
72576;DHT22;60613;48.658;2.328;2023-06-10T15:55:54;30.80;36.70
72576;DHT22;60613;48.658;2.328;2023-06-10T15:58:19;30.80;36.70
72576;DHT22;60613;48.658;2.328;2023-06-10T16:00:45;30.80;36.40
72576;DHT22;60613;48.658;2.328;2023-06-10T16:03:10;30.70;36.70
72576;DHT22;60613;48.658;2.328;2023-06-10T16:05:36;30.50;36.60
72576;DHT22;60613;48.658;2.328;2023-06-10T16:08:05;30.30;37.00
72576;DHT22;60613;48.658;2.328;2023-06-10T16:10:30;30.30;37.50
72576;DHT22;60613;48.658;2.328;2023-06-10T16:12:56;30.20;37.40
72576;DHT22;60613;48.658;2.328;2023-06-10T16:15:21;30.10;37.60
72576;DHT22;60613;48.658;2.328;2023-06-10T16:17:47;30.20;37.90
72576;DHT22;60613;48.658;2.328;2023-06-10T16:20:13;30.20;38.00
72576;DHT22;60613;48.658;2.328;2023-06-10T16:22:38;30.30;38.20
72576;DHT22;60613;48.658;2.328;2023-06-10T16:25:04;30.40;38.30
72576;DHT22;60613;48.658;2.328;2023-06-10T16:27:30;30.40;38.60
72576;DHT22;60613;48.658;2.328;2023-06-10T16:29:56;30.40;38.50
72576;DHT22;60613;48.658;2.328;2023-06-10T16:32:22;30.30;38.60
72576;DHT22;60613;48.658;2.328;2023-06-10T16:34:47;30.20;38.60
72576;DHT22;60613;48.658;2.328;2023-06-10T16:37:13;30.20;39.00
72576;DHT22;60613;48.658;2.328;2023-06-10T16:39:39;30.20;39.20
72576;DHT22;60613;48.658;2.328;2023-06-10T16:42:05;30.30;39.30
72576;DHT22;60613;48.658;2.328;2023-06-10T16:44:31;30.40;39.40
72576;DHT22;60613;48.658;2.328;2023-06-10T16:46:56;30.40;39.50
72576;DHT22;60613;48.658;2.328;2023-06-10T16:49:22;30.40;39.70
72576;DHT22;60613;48.658;2.328;2023-06-10T16:51:47;30.50;39.80
72576;DHT22;60613;48.658;2.328;2023-06-10T16:54:13;30.50;39.80
72576;DHT22;60613;48.658;2.328;2023-06-10T16:56:38;30.50;39.70
72576;DHT22;60613;48.658;2.328;2023-06-10T16:59:04;30.50;39.80
72576;DHT22;60613;48.658;2.328;2023-06-10T17:01:31;30.50;40.00
72576;DHT22;60613;48.658;2.328;2023-06-10T17:03:56;30.40;39.70
72576;DHT22;60613;48.658;2.328;2023-06-10T17:06:22;30.40;40.10
72576;DHT22;60613;48.658;2.328;2023-06-10T17:08:47;30.30;40.20
72576;DHT22;60613;48.658;2.328;2023-06-10T17:11:13;30.10;40.30
72576;DHT22;60613;48.658;2.328;2023-06-10T17:13:39;30.00;40.50
72576;DHT22;60613;48.658;2.328;2023-06-10T17:16:04;30.00;40.60
72576;DHT22;60613;48.658;2.328;2023-06-10T17:18:30;30.00;40.70
72576;DHT22;60613;48.658;2.328;2023-06-10T17:20:56;29.90;40.90
72576;DHT22;60613;48.658;2.328;2023-06-10T17:23:22;30.00;40.90
72576;DHT22;60613;48.658;2.328;2023-06-10T17:25:48;29.90;40.80
72576;DHT22;60613;48.658;2.328;2023-06-10T17:28:14;29.90;40.90
72576;DHT22;60613;48.658;2.328;2023-06-10T17:30:40;29.80;41.00
72576;DHT22;60613;48.658;2.328;2023-06-10T17:33:05;29.80;41.20
72576;DHT22;60613;48.658;2.328;2023-06-10T17:35:31;29.80;41.20
72576;DHT22;60613;48.658;2.328;2023-06-10T17:37:57;29.70;41.20
72576;DHT22;60613;48.658;2.328;2023-06-10T17:40:22;29.70;41.20
72576;DHT22;60613;48.658;2.328;2023-06-10T17:42:48;29.70;41.20
72576;DHT22;60613;48.658;2.328;2023-06-10T17:45:14;29.70;41.30
72576;DHT22;60613;48.658;2.328;2023-06-10T17:47:39;29.70;41.30
72576;DHT22;60613;48.658;2.328;2023-06-10T17:50:05;29.70;41.40
72576;DHT22;60613;48.658;2.328;2023-06-10T17:52:31;29.70;41.50
72576;DHT22;60613;48.658;2.328;2023-06-10T17:54:56;29.70;41.50
72576;DHT22;60613;48.658;2.328;2023-06-10T17:57:22;29.60;42.60
72576;DHT22;60613;48.658;2.328;2023-06-10T17:59:48;29.60;42.40
72576;DHT22;60613;48.658;2.328;2023-06-10T18:02:13;29.60;42.00
72576;DHT22;60613;48.658;2.328;2023-06-10T18:04:39;29.70;42.10
72576;DHT22;60613;48.658;2.328;2023-06-10T18:07:05;29.70;41.70
72576;DHT22;60613;48.658;2.328;2023-06-10T18:09:30;29.60;41.60
72576;DHT22;60613;48.658;2.328;2023-06-10T18:11:56;29.70;41.70
72576;DHT22;60613;48.658;2.328;2023-06-10T18:14:22;29.70;42.40
72576;DHT22;60613;48.658;2.328;2023-06-10T18:16:47;29.80;41.80
72576;DHT22;60613;48.658;2.328;2023-06-10T18:19:13;29.90;41.80
72576;DHT22;60613;48.658;2.328;2023-06-10T18:21:40;29.90;41.70
72576;DHT22;60613;48.658;2.328;2023-06-10T18:24:09;29.90;41.80
72576;DHT22;60613;48.658;2.328;2023-06-10T18:26:34;29.90;42.00
72576;DHT22;60613;48.658;2.328;2023-06-10T18:29:00;29.90;42.20
72576;DHT22;60613;48.658;2.328;2023-06-10T18:31:25;29.90;42.00
72576;DHT22;60613;48.658;2.328;2023-06-10T18:33:51;30.00;42.30
72576;DHT22;60613;48.658;2.328;2023-06-10T18:36:17;30.00;42.30
72576;DHT22;60613;48.658;2.328;2023-06-10T18:38:42;30.00;42.50
72576;DHT22;60613;48.658;2.328;2023-06-10T18:41:08;30.00;42.40
72576;DHT22;60613;48.658;2.328;2023-06-10T18:43:33;30.00;44.40
72576;DHT22;60613;48.658;2.328;2023-06-10T18:45:59;30.10;45.40
72576;DHT22;60613;48.658;2.328;2023-06-10T18:48:25;30.10;45.30
72576;DHT22;60613;48.658;2.328;2023-06-10T18:50:51;30.20;45.80
72576;DHT22;60613;48.658;2.328;2023-06-10T18:53:16;30.30;45.60
72576;DHT22;60613;48.658;2.328;2023-06-10T18:55:42;30.40;45.10
72576;DHT22;60613;48.658;2.328;2023-06-10T18:58:08;30.40;44.80
